»·PEaware :: N9875 KAVX-KSAN

N9875 :: KAVX-KSAN

FLIGHT INFORMATION

Flight Status: Arrived
Operator: Privately registered:
United States
More flights under this callsign
Pilot: Joe C. (22377)
Aircraft: PILATUS PC-12 EAGLE
(PC12)
More flights by this aircraft type
Origin: KAVX Catalina
United States
Destination: KSAN San Diego Intl-Lindbergh
United States
More flights between these airports :: More routes between these airports
Route: SXC V208 LAX118 CARDI MZB320 MZB
File this flight plan on PilotEdge
Remarks: I-8
Altitude:
(Current/Filed)
90ft
Speed:
(Current/Filed)
240kts
Departed: 06-Jan-19 02:50 PM
Arrived: 06-Jan-19 03:31 PM
Distance/Time
Traveled:
74nm/0:40
Distance/Time
To Go:
Arrived

Flight Plot

Page will automatically refresh every two minutes.


Map Options




Map Legend


Flown Route
Filed Route
Departure Airport
Arrival Airport
Navaid (VOR, NDB)
Fix

Horizontal Profiles

Position Reports

Time Latitude Longitude Heading Altitude Ground
Speed
06-Jan-19 14:32 33.402765 -118.419545 54 1554ft 0kts
06-Jan-19 14:33 33.402765 -118.419545 54 1554ft 0kts
06-Jan-19 14:34 33.402765 -118.419545 54 1554ft 0kts
06-Jan-19 14:35 33.402765 -118.419545 54 1554ft 0kts
06-Jan-19 14:36 33.402765 -118.419545 54 1554ft 0kts
06-Jan-19 14:37 33.402765 -118.419545 54 1554ft 0kts
06-Jan-19 14:38 33.402765 -118.419545 54 1554ft 0kts
06-Jan-19 14:39 33.402765 -118.419545 54 1554ft 0kts
06-Jan-19 14:40 33.402765 -118.419545 54 1554ft 0kts
06-Jan-19 14:41 33.402765 -118.419545 54 1554ft 0kts
06-Jan-19 14:42 33.402765 -118.419545 54 1554ft 0kts
06-Jan-19 14:43 33.402765 -118.419545 54 1554ft 0kts
06-Jan-19 14:44 33.402765 -118.419545 54 1554ft 0kts
06-Jan-19 14:45 33.402765 -118.419545 54 1554ft 0kts
06-Jan-19 14:46 33.402765 -118.419545 54 1554ft 0kts
06-Jan-19 14:47 33.402765 -118.419545 54 1554ft 0kts
06-Jan-19 14:48 33.402765 -118.419545 54 1554ft 0kts
06-Jan-19 14:49 33.411354 -118.404727 52 2033ft 118kts
06-Jan-19 14:50 33.406039 -118.371769 154 3796ft 139kts
06-Jan-19 14:51 33.367488 -118.346158 131 5618ft 180kts
06-Jan-19 14:52 33.356294 -118.294614 112 7182ft 197kts
06-Jan-19 14:53 33.350322 -118.246656 96 8503ft 204kts
06-Jan-19 14:54 33.343146 -118.192718 101 9006ft 243kts
06-Jan-19 14:56 33.333565 -118.122190 98 9002ft 266kts
06-Jan-19 14:57 33.323587 -118.043004 98 9000ft 272kts
06-Jan-19 14:58 33.315968 -117.982823 98 8999ft 274kts
06-Jan-19 14:59 33.308924 -117.927374 98 8998ft 275kts
06-Jan-19 15:00 33.300424 -117.860739 98 8996ft 275kts
06-Jan-19 15:01 33.290751 -117.784613 98 8995ft 275kts
06-Jan-19 15:02 33.278030 -117.694550 100 8995ft 275kts
06-Jan-19 15:03 33.264507 -117.605151 100 8996ft 276kts
06-Jan-19 15:04 33.224217 -117.531312 135 8999ft 272kts
06-Jan-19 15:05 33.172327 -117.466421 135 8967ft 273kts
06-Jan-19 15:06 33.120027 -117.411575 160 8973ft 267kts
06-Jan-19 15:07 33.073760 -117.386859 157 8970ft 268kts
06-Jan-19 15:08 33.031058 -117.363150 157 8970ft 269kts
06-Jan-19 15:09 32.967858 -117.328061 157 8967ft 269kts
06-Jan-19 15:10 32.907120 -117.294373 157 8971ft 269kts
06-Jan-19 15:11 32.860269 -117.265004 131 8251ft 271kts
06-Jan-19 15:12 32.845694 -117.210411 102 7110ft 271kts
06-Jan-19 15:13 32.836843 -117.163747 102 6140ft 268kts
06-Jan-19 15:14 32.825814 -117.104693 101 5017ft 248kts
06-Jan-19 15:15 32.815757 -117.049703 102 4973ft 234kts
06-Jan-19 15:15 32.806703 -116.996540 101 4975ft 229kts
06-Jan-19 15:17 32.793828 -116.918523 101 4976ft 226kts
06-Jan-19 15:18 32.782245 -116.847095 101 4976ft 225kts
06-Jan-19 15:18 32.769119 -116.791129 139 4976ft 220kts
06-Jan-19 15:20 32.718024 -116.804451 212 4980ft 208kts
06-Jan-19 15:20 32.691442 -116.837416 231 4980ft 206kts
06-Jan-19 15:21 32.669919 -116.892208 251 4045ft 219kts
06-Jan-19 15:22 32.676221 -116.954086 285 3978ft 184kts
06-Jan-19 15:23 32.688945 -117.006808 285 3299ft 198kts
06-Jan-19 15:24 32.699602 -117.050159 285 2267ft 105kts
06-Jan-19 15:25 32.706655 -117.079107 285 1924ft 83kts
06-Jan-19 15:26 32.713403 -117.106786 285 1426ft 88kts
06-Jan-19 15:27 32.720193 -117.134680 285 916ft 87kts
06-Jan-19 15:28 32.726680 -117.161682 285 410ft 82kts
06-Jan-19 15:29 32.732629 -117.185877 287 16ft 50kts
06-Jan-19 15:30 32.734757 -117.190631 49 17ft 0kts
06-Jan-19 15:31 32.734861 -117.187790 194 17ft 0kts

Navigation Log

Ident Type
Flight plan parsing failed, navigation log unavailable